Time;durP1;ratioP1;P1;durP2;ratioP2;P2;SDS_P1;SDS_P2;PMS_P1;PMS_P2;Temp;Humidity;BMP_temperature;BMP_pressure;BME280_temperature;BME280_humidity;BME280_pressure;Samples;Min_cycle;Max_cycle;Signal;HPM_P1;HPM_P2
2021/09/28 00:00:11;;;;;;;9.60;1.10;;;11.20;99.90;;;;;;5012655;28;20033;-84
2021/09/28 00:02:37;;;;;;;6.55;1.50;;;11.30;99.90;;;;;;5013413;28;20053;-84
2021/09/28 00:05:03;;;;;;;8.88;1.10;;;11.20;99.90;;;;;;5012844;28;20054;-84
2021/09/28 00:07:28;;;;;;;6.90;1.10;;;11.20;99.90;;;;;;5008338;28;20034;-84
2021/09/28 00:09:54;;;;;;;11.85;1.45;;;11.20;99.90;;;;;;5011866;28;22182;-84
2021/09/28 00:12:20;;;;;;;7.65;0.90;;;11.20;99.90;;;;;;5011231;28;20034;-84
2021/09/28 00:14:45;;;;;;;6.72;0.90;;;11.20;99.90;;;;;;5010927;28;20040;-84
2021/09/28 00:17:12;;;;;;;9.02;1.05;;;11.20;99.90;;;;;;5010740;28;20033;-84
2021/09/28 00:19:38;;;;;;;5.82;1.05;;;11.20;99.90;;;;;;5012549;28;20022;-85
2021/09/28 00:22:04;;;;;;;4.82;0.95;;;11.10;99.90;;;;;;5012899;28;20029;-84
2021/09/28 00:24:30;;;;;;;10.25;0.93;;;11.10;99.90;;;;;;5012329;28;20418;-84
2021/09/28 00:26:55;;;;;;;5.80;0.70;;;11.10;99.90;;;;;;5012923;28;20104;-84
2021/09/28 00:29:21;;;;;;;6.60;0.85;;;11.10;99.90;;;;;;5012078;28;20026;-84
2021/09/28 00:31:46;;;;;;;8.55;1.05;;;11.10;99.90;;;;;;5012025;28;20037;-84
2021/09/28 00:34:12;;;;;;;6.50;0.90;;;11.10;99.90;;;;;;5011044;28;20029;-85
2021/09/28 00:36:37;;;;;;;6.07;0.88;;;11.10;99.90;;;;;;5012827;28;20054;-84
2021/09/28 00:39:03;;;;;;;9.65;1.08;;;11.10;99.90;;;;;;5011177;28;20037;-84
2021/09/28 00:41:28;;;;;;;10.60;0.90;;;11.10;99.90;;;;;;5013278;28;20032;-84
2021/09/28 00:43:55;;;;;;;7.70;1.13;;;11.10;99.90;;;;;;5012354;28;20022;-85
2021/09/28 00:46:22;;;;;;;6.65;1.00;;;11.10;99.90;;;;;;5012505;28;20058;-85
2021/09/28 00:48:48;;;;;;;9.30;0.93;;;11.00;99.90;;;;;;5010434;28;20030;-84
2021/09/28 00:51:15;;;;;;;8.32;1.00;;;11.10;99.90;;;;;;5011140;28;20038;-84
2021/09/28 00:53:41;;;;;;;12.35;1.35;;;11.10;99.90;;;;;;5009395;28;20054;-84
2021/09/28 00:56:10;;;;;;;11.73;1.08;;;11.10;99.90;;;;;;5010922;28;20033;-84
2021/09/28 00:58:36;;;;;;;7.55;0.88;;;11.00;99.90;;;;;;5012403;28;20017;-84
2021/09/28 01:01:03;;;;;;;5.80;0.70;;;11.10;99.90;;;;;;5011023;28;20052;-84
2021/09/28 01:03:31;;;;;;;8.98;0.80;;;11.00;99.90;;;;;;5012149;28;20029;-84
2021/09/28 01:05:57;;;;;;;7.10;0.80;;;11.00;99.90;;;;;;5011586;28;20486;-84
2021/09/28 01:08:22;;;;;;;6.35;0.90;;;11.00;99.90;;;;;;5011551;28;20041;-84
2021/09/28 01:10:48;;;;;;;6.05;0.70;;;11.00;99.90;;;;;;5013777;28;20026;-84
2021/09/28 01:13:14;;;;;;;10.00;1.00;;;11.00;99.90;;;;;;5013095;28;20453;-84
2021/09/28 01:15:46;;;;;;;8.65;0.95;;;11.00;99.90;;;;;;5011459;28;20024;-84
2021/09/28 01:18:12;;;;;;;11.45;0.90;;;10.90;99.90;;;;;;5003859;28;20505;-83
2021/09/28 01:20:37;;;;;;;10.10;1.10;;;10.90;99.90;;;;;;5011468;28;20157;-84
2021/09/28 01:23:03;;;;;;;11.23;0.90;;;10.90;99.90;;;;;;5011535;28;20026;-84
2021/09/28 01:25:31;;;;;;;10.35;0.93;;;10.80;99.90;;;;;;5018406;28;20041;-84
2021/09/28 01:27:56;;;;;;;12.15;0.90;;;10.80;99.90;;;;;;5008926;28;20556;-84
2021/09/28 01:30:22;;;;;;;8.18;1.08;;;10.80;99.90;;;;;;5008359;28;20033;-85
2021/09/28 01:32:47;;;;;;;8.23;1.23;;;10.70;99.90;;;;;;5012314;28;20030;-84
2021/09/28 01:35:13;;;;;;;9.88;0.95;;;10.70;99.90;;;;;;5009992;28;20044;-85
2021/09/28 01:37:38;;;;;;;8.13;0.75;;;10.70;99.90;;;;;;5011211;28;20113;-84
2021/09/28 01:40:04;;;;;;;9.80;0.98;;;10.60;99.90;;;;;;5010274;28;20367;-84
2021/09/28 01:42:30;;;;;;;11.80;1.17;;;10.60;99.90;;;;;;5011302;28;20064;-84
2021/09/28 01:44:55;;;;;;;11.55;1.38;;;10.50;99.90;;;;;;5011058;28;20121;-84
2021/09/28 01:47:21;;;;;;;12.00;1.30;;;10.60;99.90;;;;;;5010883;28;20042;-83
2021/09/28 01:49:46;;;;;;;11.23;1.45;;;10.50;99.90;;;;;;5011236;28;20037;-84
2021/09/28 01:52:12;;;;;;;7.90;0.90;;;10.50;99.90;;;;;;5011585;28;20461;-84
2021/09/28 01:54:38;;;;;;;7.40;0.90;;;10.50;99.90;;;;;;5010819;28;20117;-84
2021/09/28 01:57:04;;;;;;;10.52;0.90;;;10.50;99.90;;;;;;5009974;28;20022;-85
2021/09/28 01:59:29;;;;;;;11.55;1.63;;;10.40;99.90;;;;;;5011135;28;20486;-85
2021/09/28 02:01:55;;;;;;;8.00;1.10;;;10.40;99.90;;;;;;5011195;28;20026;-84
2021/09/28 02:04:20;;;;;;;16.92;1.25;;;10.40;99.90;;;;;;5002987;28;20082;-84
2021/09/28 02:06:46;;;;;;;10.88;1.27;;;10.40;99.90;;;;;;5010198;28;20018;-84
2021/09/28 02:09:11;;;;;;;11.02;0.90;;;10.30;99.90;;;;;;5008622;28;20084;-84
2021/09/28 02:11:38;;;;;;;8.13;0.85;;;10.40;99.90;;;;;;5011002;28;20113;-84
2021/09/28 02:14:07;;;;;;;9.45;1.30;;;10.30;99.90;;;;;;5010154;28;20037;-84
2021/09/28 02:16:33;;;;;;;8.10;1.27;;;10.30;99.90;;;;;;5023548;28;20052;-84
2021/09/28 02:18:58;;;;;;;6.03;0.75;;;10.30;99.90;;;;;;5010065;28;20057;-84
2021/09/28 02:21:24;;;;;;;10.13;0.77;;;10.30;99.90;;;;;;5009827;28;20391;-84
2021/09/28 02:23:49;;;;;;;9.18;0.93;;;10.20;99.90;;;;;;5011276;28;20040;-84
2021/09/28 02:26:15;;;;;;;11.70;1.20;;;10.30;99.90;;;;;;5011217;28;20551;-84
2021/09/28 02:28:41;;;;;;;9.52;1.10;;;10.20;99.90;;;;;;5010734;28;20038;-84
2021/09/28 02:31:07;;;;;;;14.10;2.10;;;10.30;99.90;;;;;;5012386;28;20026;-84
2021/09/28 02:33:32;;;;;;;13.52;1.45;;;10.20;99.90;;;;;;5010361;28;20165;-84
2021/09/28 02:35:58;;;;;;;7.18;1.00;;;10.20;99.90;;;;;;5009477;28;20386;-84
2021/09/28 02:38:23;;;;;;;11.05;1.05;;;10.20;99.90;;;;;;5010817;28;20033;-84
2021/09/28 02:40:49;;;;;;;9.82;0.95;;;10.10;99.90;;;;;;5015086;28;20026;-84
2021/09/28 02:43:14;;;;;;;11.07;1.35;;;10.20;99.90;;;;;;5015518;28;20141;-85
2021/09/28 02:45:41;;;;;;;10.00;1.20;;;10.10;99.90;;;;;;5012676;28;20034;-84
2021/09/28 02:48:06;;;;;;;6.75;1.23;;;10.10;99.90;;;;;;5014329;28;20095;-84
2021/09/28 02:50:35;;;;;;;8.68;1.10;;;10.00;99.90;;;;;;5015132;28;20026;-84
2021/09/28 02:53:02;;;;;;;7.82;0.95;;;10.00;99.90;;;;;;5014446;28;20029;-84
2021/09/28 02:55:28;;;;;;;8.65;1.00;;;10.00;99.90;;;;;;5013223;28;20421;-84
2021/09/28 02:57:54;;;;;;;8.70;1.00;;;10.00;99.90;;;;;;5014611;28;20096;-84
2021/09/28 03:00:19;;;;;;;10.98;1.10;;;10.00;99.90;;;;;;5013290;28;20034;-84
2021/09/28 03:02:45;;;;;;;11.52;1.15;;;10.00;99.90;;;;;;5013522;28;20033;-84
2021/09/28 03:05:10;;;;;;;11.73;1.13;;;10.00;99.90;;;;;;5012650;28;20033;-84
2021/09/28 03:07:36;;;;;;;10.93;1.10;;;10.00;99.90;;;;;;5013909;28;20034;-84
2021/09/28 03:10:02;;;;;;;6.50;0.82;;;10.00;99.90;;;;;;5018021;28;20025;-83
2021/09/28 03:12:27;;;;;;;9.45;0.70;;;9.90;99.90;;;;;;5013707;28;20126;-84
2021/09/28 03:14:53;;;;;;;5.95;0.70;;;10.00;99.90;;;;;;5012015;28;20117;-84
2021/09/28 03:17:19;;;;;;;10.82;0.93;;;10.00;99.90;;;;;;5014891;28;20627;-84
2021/09/28 03:19:44;;;;;;;5.82;0.90;;;10.00;99.90;;;;;;5014574;28;20022;-84
2021/09/28 03:22:10;;;;;;;12.57;0.73;;;10.00;99.90;;;;;;5013996;28;20434;-84
2021/09/28 03:24:35;;;;;;;8.43;0.80;;;10.00;99.90;;;;;;5012997;28;20022;-84
2021/09/28 03:27:00;;;;;;;7.88;0.82;;;10.00;99.90;;;;;;5012132;28;20042;-83
2021/09/28 03:29:26;;;;;;;4.72;0.90;;;10.10;99.90;;;;;;5013532;28;20060;-84
2021/09/28 03:31:52;;;;;;;11.82;0.98;;;10.00;99.90;;;;;;5014024;28;20853;-84
2021/09/28 03:34:17;;;;;;;6.30;0.57;;;10.10;99.90;;;;;;5012846;28;20528;-83
2021/09/28 03:36:43;;;;;;;5.18;0.70;;;10.10;99.90;;;;;;5011798;28;20061;-84
2021/09/28 03:39:11;;;;;;;7.97;0.75;;;10.10;99.90;;;;;;5011050;28;20022;-84
2021/09/28 03:41:37;;;;;;;10.75;1.02;;;10.10;99.90;;;;;;5012437;28;20034;-83
2021/09/28 03:44:03;;;;;;;6.00;0.60;;;10.10;99.90;;;;;;5013087;28;20022;-84
2021/09/28 03:46:28;;;;;;;9.10;0.70;;;10.10;99.90;;;;;;5010924;28;20088;-84
2021/09/28 03:48:54;;;;;;;8.57;0.70;;;10.20;99.90;;;;;;5013040;28;20113;-84
2021/09/28 03:51:19;;;;;;;8.98;0.77;;;10.10;99.90;;;;;;5012716;28;20038;-83
2021/09/28 03:53:45;;;;;;;12.40;0.90;;;10.10;99.90;;;;;;5013522;28;20022;-84
2021/09/28 03:56:10;;;;;;;6.88;0.80;;;10.10;99.90;;;;;;5013359;28;20034;-84
2021/09/28 03:58:36;;;;;;;11.10;1.00;;;10.10;99.90;;;;;;5017641;28;20026;-84
2021/09/28 04:01:01;;;;;;;7.10;0.68;;;10.00;99.90;;;;;;5011989;28;20397;-84
2021/09/28 04:03:27;;;;;;;11.23;0.70;;;10.00;99.90;;;;;;5013351;28;20022;-84
2021/09/28 04:05:52;;;;;;;6.90;0.70;;;10.10;99.90;;;;;;5013080;28;20033;-84
2021/09/28 04:08:18;;;;;;;10.57;0.90;;;10.00;99.90;;;;;;5014200;28;20034;-83
2021/09/28 04:10:43;;;;;;;10.60;1.02;;;10.10;99.90;;;;;;5010955;28;20137;-84
2021/09/28 04:13:10;;;;;;;6.38;0.70;;;10.00;99.90;;;;;;5007025;28;20034;-84
2021/09/28 04:15:40;;;;;;;9.18;1.00;;;10.10;99.90;;;;;;5011793;28;20037;-84
2021/09/28 04:18:10;;;;;;;7.88;0.95;;;10.10;99.90;;;;;;5011276;28;20026;-84
2021/09/28 04:20:44;;;;;;;7.10;0.77;;;10.10;99.90;;;;;;5021900;28;20057;-84
2021/09/28 04:23:11;;;;;;;6.47;0.73;;;10.10;99.90;;;;;;5011125;28;20040;-84
2021/09/28 04:25:37;;;;;;;14.60;0.85;;;10.00;99.90;;;;;;5011004;28;20187;-84
2021/09/28 04:28:04;;;;;;;9.32;1.48;;;10.00;99.90;;;;;;5012484;28;20101;-83
2021/09/28 04:30:29;;;;;;;15.68;1.00;;;10.00;99.90;;;;;;5012052;28;20025;-84
2021/09/28 04:32:55;;;;;;;10.50;0.80;;;10.00;99.90;;;;;;5011426;28;20041;-84
2021/09/28 04:35:20;;;;;;;9.20;0.98;;;10.00;99.90;;;;;;5011186;28;20057;-84
2021/09/28 04:37:46;;;;;;;7.82;0.90;;;10.00;99.90;;;;;;5012119;28;20386;-84
2021/09/28 04:40:12;;;;;;;7.55;0.95;;;10.00;99.90;;;;;;5006593;28;20034;-84
2021/09/28 04:42:38;;;;;;;7.65;0.90;;;9.90;99.90;;;;;;5010432;28;20037;-84
2021/09/28 04:45:05;;;;;;;6.40;0.77;;;9.90;99.90;;;;;;5007605;28;20030;-84
2021/09/28 04:47:30;;;;;;;11.25;0.90;;;9.90;99.90;;;;;;5010959;28;20040;-84
2021/09/28 04:49:56;;;;;;;8.55;0.80;;;9.90;99.90;;;;;;5014129;28;20030;-84
2021/09/28 04:52:22;;;;;;;9.18;0.80;;;9.80;99.90;;;;;;5010489;28;20030;-84
2021/09/28 04:54:47;;;;;;;6.53;0.70;;;9.90;99.90;;;;;;5014123;28;20485;-85
2021/09/28 04:57:13;;;;;;;9.93;1.15;;;9.90;99.90;;;;;;5013287;28;20041;-85
2021/09/28 04:59:38;;;;;;;7.15;0.55;;;9.80;99.90;;;;;;5013736;28;20080;-84
2021/09/28 05:02:04;;;;;;;11.75;1.05;;;9.80;99.90;;;;;;5011602;28;20033;-84
2021/09/28 05:04:30;;;;;;;7.35;0.85;;;9.80;99.90;;;;;;5007031;28;20438;-84
2021/09/28 05:06:55;;;;;;;5.13;0.70;;;9.80;99.90;;;;;;5006434;28;20394;-84
2021/09/28 05:09:21;;;;;;;13.15;0.80;;;9.70;99.90;;;;;;5011959;28;20033;-84
2021/09/28 05:11:48;;;;;;;8.68;0.75;;;9.70;99.90;;;;;;5011978;28;20037;-84
2021/09/28 05:14:13;;;;;;;7.63;0.68;;;9.70;99.90;;;;;;5008545;28;20025;-84
2021/09/28 05:16:39;;;;;;;13.30;0.70;;;9.70;99.90;;;;;;5010660;28;20390;-84
2021/09/28 05:19:05;;;;;;;4.05;0.52;;;9.70;99.90;;;;;;5007438;28;20098;-84
2021/09/28 05:21:32;;;;;;;10.02;0.75;;;9.70;99.90;;;;;;5007332;28;20445;-84
2021/09/28 05:23:58;;;;;;;8.95;1.00;;;9.70;99.90;;;;;;5009554;28;20026;-85
2021/09/28 05:26:24;;;;;;;7.22;0.95;;;9.60;99.90;;;;;;5005976;28;20041;-85
2021/09/28 05:28:50;;;;;;;6.90;0.98;;;9.70;99.90;;;;;;5005437;28;20025;-86
2021/09/28 05:31:17;;;;;;;10.88;1.67;;;9.60;99.90;;;;;;5010948;28;20152;-84
2021/09/28 05:33:42;;;;;;;8.68;0.80;;;9.60;99.90;;;;;;5014943;28;20097;-84
2021/09/28 05:36:08;;;;;;;5.78;0.90;;;9.60;99.90;;;;;;5010340;28;20139;-84
2021/09/28 05:38:34;;;;;;;9.43;0.93;;;9.60;99.90;;;;;;5012787;28;20486;-84
2021/09/28 05:41:04;;;;;;;11.70;0.95;;;9.60;99.90;;;;;;5010686;28;20030;-85
2021/09/28 05:43:29;;;;;;;6.13;0.90;;;9.60;99.90;;;;;;5006314;28;20026;-84
2021/09/28 05:45:55;;;;;;;12.43;1.05;;;9.50;99.90;;;;;;5003899;28;20033;-84
2021/09/28 05:48:20;;;;;;;8.48;1.92;;;9.50;99.90;;;;;;5007601;28;20037;-85
2021/09/28 05:50:47;;;;;;;16.75;1.20;;;9.50;99.90;;;;;;5008313;28;20113;-84
2021/09/28 05:53:12;;;;;;;8.98;1.00;;;9.50;99.90;;;;;;5007121;28;20026;-84
2021/09/28 05:55:38;;;;;;;7.20;1.00;;;9.50;99.90;;;;;;5009911;28;20055;-84
2021/09/28 05:58:04;;;;;;;5.85;0.63;;;9.50;99.90;;;;;;5006940;28;20030;-84
2021/09/28 06:00:30;;;;;;;3.90;0.70;;;9.40;99.90;;;;;;5010817;28;20113;-84
2021/09/28 06:02:56;;;;;;;9.90;1.00;;;9.50;99.90;;;;;;5012837;28;20050;-84
2021/09/28 06:05:22;;;;;;;8.93;1.13;;;9.50;99.90;;;;;;5009519;28;20156;-84
2021/09/28 06:07:47;;;;;;;13.23;1.50;;;9.60;99.90;;;;;;5025433;28;20506;-84
2021/09/28 06:10:13;;;;;;;7.38;0.77;;;9.60;99.90;;;;;;5012344;28;20025;-84
2021/09/28 06:12:39;;;;;;;11.65;1.10;;;9.60;99.90;;;;;;5012565;28;20634;-84
2021/09/28 06:15:05;;;;;;;10.95;1.02;;;9.60;99.90;;;;;;5016350;28;20052;-85
2021/09/28 06:17:31;;;;;;;5.05;1.00;;;9.60;99.90;;;;;;5013931;28;20131;-84
2021/09/28 06:19:57;;;;;;;11.85;1.48;;;9.60;99.90;;;;;;5015502;28;20085;-84
2021/09/28 06:22:25;;;;;;;14.98;1.50;;;9.70;99.90;;;;;;5015040;28;20547;-86
2021/09/28 06:24:52;;;;;;;10.52;1.55;;;9.70;99.90;;;;;;5012235;28;20650;-84
2021/09/28 06:27:18;;;;;;;7.38;1.15;;;9.80;99.90;;;;;;5012928;28;20048;-85
2021/09/28 06:29:43;;;;;;;20.70;1.60;;;9.80;99.90;;;;;;5014461;28;20026;-84
2021/09/28 06:32:09;;;;;;;6.13;1.40;;;9.90;99.90;;;;;;5012396;28;20077;-83
2021/09/28 06:34:35;;;;;;;5.47;1.20;;;9.90;99.90;;;;;;5013052;28;20034;-85
2021/09/28 06:37:03;;;;;;;5.68;1.13;;;10.00;99.90;;;;;;5015115;28;20034;-85
2021/09/28 06:39:29;;;;;;;8.02;1.40;;;10.10;99.90;;;;;;5011044;28;20028;-83
2021/09/28 06:41:59;;;;;;;11.75;1.80;;;10.10;99.90;;;;;;5006428;28;20266;-86
2021/09/28 06:44:26;;;;;;;4.57;1.08;;;10.20;99.90;;;;;;5013203;28;20022;-84
2021/09/28 06:46:55;;;;;;;8.93;1.10;;;10.30;99.90;;;;;;5014195;28;20026;-85
2021/09/28 06:49:21;;;;;;;12.27;1.80;;;10.40;99.90;;;;;;5014957;28;20065;-85
2021/09/28 06:51:47;;;;;;;7.90;1.70;;;10.50;99.90;;;;;;5015738;28;20033;-85
2021/09/28 06:54:12;;;;;;;11.63;1.60;;;10.50;99.90;;;;;;5012587;28;20358;-86
2021/09/28 06:56:38;;;;;;;11.65;1.42;;;10.70;99.90;;;;;;5015421;28;20478;-86
2021/09/28 06:59:07;;;;;;;10.25;1.48;;;10.70;99.90;;;;;;5014580;28;20022;-86
2021/09/28 07:01:34;;;;;;;8.52;1.52;;;10.90;99.90;;;;;;5015343;28;20052;-84
2021/09/28 07:04:00;;;;;;;8.82;1.35;;;10.90;99.90;;;;;;5015227;28;20055;-85
2021/09/28 07:06:26;;;;;;;6.72;1.35;;;11.00;99.90;;;;;;5012733;28;20026;-85
2021/09/28 07:08:52;;;;;;;10.15;1.25;;;11.20;99.90;;;;;;5012708;28;20044;-84
2021/09/28 07:11:19;;;;;;;5.72;1.15;;;11.20;99.90;;;;;;5015504;28;20474;-85
2021/09/28 07:13:44;;;;;;;7.22;1.23;;;11.40;99.90;;;;;;5014158;28;20045;-86
2021/09/28 07:16:10;;;;;;;10.88;1.45;;;11.40;99.90;;;;;;5013335;28;20026;-86
2021/09/28 07:18:35;;;;;;;8.82;1.33;;;11.50;99.90;;;;;;5015425;28;20080;-85
2021/09/28 07:21:01;;;;;;;10.65;1.55;;;11.60;99.90;;;;;;5013399;28;20064;-85
2021/09/28 07:23:27;;;;;;;7.65;1.60;;;11.70;99.90;;;;;;5012006;28;20124;-85
2021/09/28 07:25:52;;;;;;;10.27;1.73;;;11.80;99.90;;;;;;5013114;28;20486;-85
2021/09/28 07:28:18;;;;;;;9.43;1.50;;;11.90;99.90;;;;;;5010129;28;20756;-85
2021/09/28 07:30:44;;;;;;;8.90;1.65;;;12.00;99.90;;;;;;5013389;28;20017;-85
2021/09/28 07:33:09;;;;;;;5.22;1.38;;;12.10;99.90;;;;;;5011807;28;20083;-85
2021/09/28 07:35:35;;;;;;;7.82;1.52;;;12.20;99.90;;;;;;5014571;28;20057;-88
2021/09/28 07:38:00;;;;;;;12.77;1.63;;;12.30;99.90;;;;;;5011259;28;20025;-84
2021/09/28 07:40:26;;;;;;;6.45;1.58;;;12.40;99.90;;;;;;5013049;28;20474;-84
2021/09/28 07:42:51;;;;;;;8.27;1.50;;;12.50;99.90;;;;;;5012675;28;20045;-84
2021/09/28 07:45:17;;;;;;;12.60;1.77;;;12.60;99.90;;;;;;5012167;28;20026;-84
2021/09/28 07:47:43;;;;;;;7.15;1.63;;;12.70;99.90;;;;;;5012400;28;20034;-82
2021/09/28 07:50:10;;;;;;;7.72;1.35;;;12.80;99.90;;;;;;5008314;28;20030;-84
2021/09/28 07:52:36;;;;;;;11.48;1.38;;;12.90;99.90;;;;;;5011089;28;20027;-83
2021/09/28 07:55:01;;;;;;;11.43;1.40;;;13.00;99.90;;;;;;4995113;28;20049;-85
2021/09/28 07:57:27;;;;;;;8.38;1.60;;;13.00;99.90;;;;;;5010461;28;20033;-84
2021/09/28 07:59:54;;;;;;;9.13;2.13;;;13.10;99.90;;;;;;5014899;28;20509;-84
2021/09/28 08:02:20;;;;;;;5.35;1.58;;;13.20;99.90;;;;;;5011777;28;20030;-84
2021/09/28 08:04:47;;;;;;;10.40;1.67;;;13.30;99.90;;;;;;5014228;28;20033;-84
2021/09/28 08:07:13;;;;;;;8.15;1.95;;;13.40;99.90;;;;;;5014588;28;20128;-84
2021/09/28 08:09:39;;;;;;;9.60;1.83;;;13.50;99.90;;;;;;5014685;28;20022;-84
2021/09/28 08:12:06;;;;;;;12.82;2.25;;;13.60;99.90;;;;;;5012968;28;20068;-84
2021/09/28 08:14:32;;;;;;;7.57;1.92;;;13.70;99.90;;;;;;5013467;28;20025;-84
2021/09/28 08:16:58;;;;;;;7.15;1.30;;;13.80;99.90;;;;;;5014293;28;20506;-84
2021/09/28 08:19:23;;;;;;;7.90;1.20;;;13.90;99.90;;;;;;5014633;28;20022;-84
2021/09/28 08:21:49;;;;;;;7.05;1.35;;;14.00;99.90;;;;;;5015449;28;20026;-84
2021/09/28 08:24:14;;;;;;;13.38;2.22;;;14.10;99.90;;;;;;5013083;28;20045;-85
2021/09/28 08:29:24;;;;;;;14.60;2.92;;;14.20;99.90;;;;;;5015664;28;20173;-84
2021/09/28 08:31:51;;;;;;;7.53;1.52;;;14.30;99.90;;;;;;5013366;28;20117;-84
2021/09/28 08:34:17;;;;;;;7.68;1.25;;;14.50;99.90;;;;;;5011285;28;20469;-84
2021/09/28 08:36:43;;;;;;;7.65;1.60;;;14.50;99.90;;;;;;5009493;28;20048;-82
2021/09/28 08:39:12;;;;;;;7.97;1.20;;;14.60;99.90;;;;;;5010261;28;20104;-82
2021/09/28 08:41:45;;;;;;;8.52;1.48;;;14.70;99.90;;;;;;5013746;28;20033;-84
2021/09/28 08:44:12;;;;;;;15.25;2.10;;;14.80;99.90;;;;;;5012445;28;20049;-84
2021/09/28 08:46:37;;;;;;;7.75;1.70;;;14.90;99.90;;;;;;5012176;28;20130;-83
2021/09/28 08:49:03;;;;;;;11.75;1.60;;;15.00;99.90;;;;;;5011087;28;20116;-83
2021/09/28 08:51:29;;;;;;;8.25;1.70;;;15.10;99.90;;;;;;5007528;28;20026;-84
2021/09/28 08:53:55;;;;;;;10.15;1.50;;;15.20;99.90;;;;;;5011600;28;20048;-81
2021/09/28 08:56:20;;;;;;;8.48;1.50;;;15.30;99.90;;;;;;5010364;28;20033;-83
2021/09/28 08:59:02;;;;;;;8.88;1.35;;;15.30;99.90;;;;;;5012073;28;20026;-85
2021/09/28 09:01:29;;;;;;;8.13;1.30;;;15.40;99.90;;;;;;5010997;28;20022;-84
2021/09/28 09:03:55;;;;;;;7.13;1.17;;;15.50;99.90;;;;;;5010849;28;20030;-84
2021/09/28 09:06:34;;;;;;;12.95;1.27;;;15.60;99.90;;;;;;5007925;28;20038;-83
2021/09/28 09:09:02;;;;;;;6.18;1.20;;;15.70;99.90;;;;;;5012919;28;20030;-84
2021/09/28 09:11:35;;;;;;;9.50;1.42;;;15.70;99.90;;;;;;5011908;28;20037;-85
2021/09/28 09:14:21;;;;;;;7.13;1.23;;;15.80;99.90;;;;;;5012612;28;20040;-84
2021/09/28 09:16:55;;;;;;;12.20;1.27;;;15.80;99.90;;;;;;5012689;28;20026;-84
2021/09/28 09:19:29;;;;;;;8.25;1.20;;;15.80;99.90;;;;;;4994612;28;20069;-84
2021/09/28 09:22:02;;;;;;;11.63;1.17;;;15.80;99.90;;;;;;5009666;28;20120;-85
2021/09/28 09:24:49;;;;;;;10.82;1.50;;;15.90;99.90;;;;;;5013137;28;20036;-84
2021/09/28 09:27:26;;;;;;;9.07;1.70;;;16.00;99.90;;;;;;5011049;28;20441;-84
2021/09/28 09:30:06;;;;;;;6.47;1.23;;;16.10;99.80;;;;;;5012244;28;20026;-84
2021/09/28 09:32:49;;;;;;;11.15;1.48;;;16.20;99.80;;;;;;5005450;28;20152;-84
2021/09/28 09:35:30;;;;;;;9.05;1.90;;;16.30;99.60;;;;;;5008904;28;20041;-83
2021/09/28 09:38:12;;;;;;;9.50;1.70;;;16.30;99.10;;;;;;5020899;28;20026;-84
2021/09/28 09:40:40;;;;;;;12.40;1.52;;;16.30;99.00;;;;;;5009093;28;20030;-84
2021/09/28 09:43:07;;;;;;;9.48;1.30;;;16.20;98.80;;;;;;5001101;28;20065;-84
2021/09/28 09:45:33;;;;;;;9.65;1.23;;;16.20;98.80;;;;;;5011462;28;20026;-85
2021/09/28 09:47:59;;;;;;;6.72;1.15;;;16.30;98.50;;;;;;5008642;28;20044;-84
2021/09/28 09:50:26;;;;;;;9.80;1.50;;;16.30;98.60;;;;;;5015448;28;20063;-84
2021/09/28 09:52:58;;;;;;;11.32;1.70;;;16.40;98.70;;;;;;5014718;28;20570;-84
2021/09/28 09:55:25;;;;;;;10.77;1.85;;;16.50;98.40;;;;;;5016225;28;20018;-84
2021/09/28 09:57:52;;;;;;;9.57;1.77;;;16.50;98.10;;;;;;5016375;28;20573;-84
2021/09/28 10:00:19;;;;;;;9.35;1.38;;;16.50;98.10;;;;;;5016876;28;20076;-84
2021/09/28 10:02:46;;;;;;;8.38;1.63;;;16.60;98.00;;;;;;5010630;28;20030;-84
2021/09/28 10:05:11;;;;;;;7.07;1.15;;;16.60;97.70;;;;;;5009375;28;20367;-84
2021/09/28 10:07:37;;;;;;;12.20;1.15;;;16.70;97.60;;;;;;5014164;28;20049;-84
2021/09/28 10:10:05;;;;;;;8.73;1.65;;;16.70;97.30;;;;;;5014048;28;20037;-84
2021/09/28 10:12:37;;;;;;;9.80;1.20;;;16.90;97.20;;;;;;5014559;28;20076;-85
2021/09/28 10:15:11;;;;;;;5.95;0.80;;;16.90;97.00;;;;;;5014856;28;20544;-83
2021/09/28 10:17:43;;;;;;;7.80;0.80;;;17.00;96.80;;;;;;5018661;28;20034;-84
2021/09/28 10:20:21;;;;;;;9.15;1.45;;;17.00;96.60;;;;;;5013800;28;20070;-84
2021/09/28 10:22:53;;;;;;;6.57;0.90;;;17.00;96.70;;;;;;5019691;28;20434;-83
2021/09/28 10:25:19;;;;;;;10.23;1.25;;;17.10;96.70;;;;;;5015196;28;20080;-84
2021/09/28 10:27:46;;;;;;;6.40;1.20;;;17.20;96.60;;;;;;5008298;28;20123;-84
2021/09/28 10:30:38;;;;;;;7.10;1.55;;;17.30;96.40;;;;;;5013678;28;20029;-84
2021/09/28 10:33:06;;;;;;;13.15;1.33;;;17.40;96.10;;;;;;5030669;28;20037;-84
2021/09/28 10:35:35;;;;;;;7.20;1.00;;;17.40;95.80;;;;;;5030871;28;20527;-83
2021/09/28 10:38:02;;;;;;;9.32;1.10;;;17.40;95.50;;;;;;5025559;28;20080;-84
2021/09/28 10:40:30;;;;;;;8.25;0.85;;;17.40;95.60;;;;;;5012374;28;20113;-85
2021/09/28 10:43:00;;;;;;;10.85;1.30;;;17.50;95.30;;;;;;5013876;28;20026;-84
2021/09/28 10:45:29;;;;;;;9.57;1.55;;;17.60;95.40;;;;;;5011412;28;20063;-84
2021/09/28 10:48:09;;;;;;;10.15;1.75;;;17.70;95.30;;;;;;5015372;28;20040;-82
2021/09/28 10:50:37;;;;;;;7.53;0.70;;;17.70;95.10;;;;;;5013218;28;20550;-83
2021/09/28 10:53:08;;;;;;;8.65;1.15;;;17.80;94.50;;;;;;5015182;28;20052;-83
2021/09/28 10:55:53;;;;;;;8.93;1.20;;;17.80;94.50;;;;;;5006064;28;20022;-83
2021/09/28 10:58:20;;;;;;;7.82;0.70;;;18.00;94.50;;;;;;5015738;28;20405;-83
2021/09/28 11:00:45;;;;;;;11.23;1.20;;;18.00;94.30;;;;;;5004248;28;20374;-84
2021/09/28 11:03:11;;;;;;;8.68;0.73;;;18.10;93.90;;;;;;5005412;28;20048;-84
2021/09/28 11:05:39;;;;;;;6.43;0.60;;;18.00;93.90;;;;;;5015083;28;20457;-84
2021/09/28 11:08:10;;;;;;;5.47;0.75;;;18.10;93.90;;;;;;5013793;28;20073;-84
2021/09/28 11:10:37;;;;;;;6.10;0.50;;;18.20;93.30;;;;;;5014789;28;20021;-84
2021/09/28 11:13:12;;;;;;;7.20;0.63;;;18.20;92.90;;;;;;5014367;28;20056;-84
2021/09/28 11:15:38;;;;;;;7.00;0.60;;;18.30;92.70;;;;;;5013754;28;20050;-84
2021/09/28 11:18:12;;;;;;;7.50;0.60;;;18.30;92.90;;;;;;5013180;28;20387;-84
2021/09/28 11:20:39;;;;;;;4.90;0.60;;;18.40;92.90;;;;;;5014316;28;20018;-84
2021/09/28 11:23:08;;;;;;;6.63;0.55;;;18.40;92.50;;;;;;5014455;28;20028;-81
2021/09/28 11:25:39;;;;;;;4.97;0.63;;;18.50;92.50;;;;;;5015748;28;20021;-84
2021/09/28 11:28:05;;;;;;;5.85;0.60;;;18.60;92.20;;;;;;5014323;28;20038;-84
2021/09/28 11:30:36;;;;;;;5.40;0.50;;;18.70;91.80;;;;;;5014446;28;20034;-84
2021/09/28 11:33:07;;;;;;;7.18;0.60;;;18.70;91.20;;;;;;5012248;28;20037;-82
2021/09/28 11:35:33;;;;;;;5.38;0.63;;;18.60;90.90;;;;;;5014084;28;20528;-82
2021/09/28 11:38:02;;;;;;;6.53;0.50;;;18.40;91.00;;;;;;5013604;28;20080;-83
2021/09/28 11:40:37;;;;;;;9.27;0.70;;;18.40;91.20;;;;;;5010945;28;20026;-82
2021/09/28 11:43:21;;;;;;;3.78;0.50;;;18.50;91.00;;;;;;5014191;28;20018;-82
2021/09/28 11:46:04;;;;;;;4.55;0.50;;;18.60;91.00;;;;;;5013753;28;20120;-82
2021/09/28 11:48:54;;;;;;;8.15;0.50;;;18.80;90.10;;;;;;5007783;28;20049;-83
2021/09/28 11:51:26;;;;;;;6.97;0.93;;;18.80;90.00;;;;;;5023151;28;20026;-84
2021/09/28 11:54:15;;;;;;;12.02;0.65;;;18.90;89.40;;;;;;5013385;28;20490;-83
2021/09/28 11:56:46;;;;;;;7.75;0.50;;;19.00;89.10;;;;;;5013219;28;20018;-84
2021/09/28 11:59:15;;;;;;;9.70;0.60;;;19.10;89.10;;;;;;5016779;28;20061;-83
2021/09/28 12:01:41;;;;;;;6.10;0.70;;;19.30;88.40;;;;;;5014090;28;20100;-84
2021/09/28 12:05:23;;;;;;;7.40;0.47;;;19.30;88.10;;;;;;5013403;28;20037;-84
2021/09/28 12:09:39;;;;;;;5.68;0.50;;;19.40;86.60;;;;;;5013648;28;20021;-82
2021/09/28 12:12:08;;;;;;;3.28;0.30;;;19.40;85.30;;;;;;5013342;28;20117;-82
2021/09/28 12:14:49;;;;;;;4.55;0.45;;;19.40;84.60;;;;;;5015267;28;20472;-83
2021/09/28 12:17:32;;;;;;;5.07;0.50;;;19.40;83.60;;;;;;5008501;28;20021;-82
2021/09/28 12:20:04;;;;;;;2.67;0.30;;;19.50;82.90;;;;;;5028698;28;20389;-82
2021/09/28 12:22:47;;;;;;;3.65;0.30;;;19.50;82.50;;;;;;4993345;28;20030;-83
2021/09/28 12:25:24;;;;;;;7.05;1.15;;;19.50;82.50;;;;;;5010330;28;20029;-83
2021/09/28 12:28:22;;;;;;;4.13;0.60;;;19.50;83.20;;;;;;5012357;28;20169;-82
2021/09/28 12:30:51;;;;;;;5.35;0.30;;;19.60;82.40;;;;;;5028348;28;20033;-84
2021/09/28 12:33:18;;;;;;;2.90;0.40;;;19.60;81.90;;;;;;5013123;28;20063;-84
2021/09/28 12:35:49;;;;;;;5.60;0.30;;;19.70;81.20;;;;;;5010200;28;20528;-83
2021/09/28 12:38:16;;;;;;;7.03;0.60;;;19.70;81.60;;;;;;4998277;28;20026;-84
2021/09/28 12:40:42;;;;;;;7.18;0.30;;;19.60;80.20;;;;;;5012117;28;20120;-83
2021/09/28 12:43:11;;;;;;;3.95;0.30;;;19.60;80.40;;;;;;5006540;28;20580;-84
2021/09/28 12:45:47;;;;;;;4.63;0.38;;;19.70;80.80;;;;;;5013129;28;20104;-83
2021/09/28 12:48:14;;;;;;;6.45;0.40;;;19.70;79.70;;;;;;5009859;28;20030;-84
2021/09/28 12:50:42;;;;;;;2.90;0.30;;;19.80;79.40;;;;;;5013719;28;20136;-84
2021/09/28 12:53:11;;;;;;;7.32;0.55;;;19.80;78.80;;;;;;5007212;28;20042;-88